Wetterdaten: Woche 07.06.10 - 13.06.10 (KW23)
Datum Zeit Temperatur Luftfeuchte Luftdruck Niederschlag Windrichtung Sonnenschein Solar Wind
07.06.2010 00:00 15,9 C 95 % 1012,3 hPa 0,0 l/m SW 0,00 h 0 W/m 12,9 km/h (3 Bft)
07.06.2010 01:00 15,9 C 96 % 1012,1 hPa 0,2 l/m SW 0,00 h 0 W/m 13,2 km/h (3 Bft)
07.06.2010 02:00 15,6 C 95 % 1011,9 hPa 0,0 l/m SW 0,00 h 0 W/m 9,7 km/h (2 Bft)
07.06.2010 03:00 15,3 C 95 % 1011,8 hPa 0,0 l/m W-SW 0,00 h 0 W/m 11,3 km/h (2 Bft)
07.06.2010 04:00 15,0 C 96 % 1011,6 hPa 0,0 l/m SW 0,00 h 0 W/m 11,7 km/h (2 Bft)
07.06.2010 05:00 15,0 C 96 % 1011,5 hPa 0,0 l/m W-SW 0,00 h 8 W/m 13,4 km/h (3 Bft)
07.06.2010 06:00 15,2 C 95 % 1011,6 hPa 0,0 l/m W-SW 0,00 h 43 W/m 9,1 km/h (2 Bft)
07.06.2010 07:00 15,7 C 95 % 1011,7 hPa 0,0 l/m W 0,00 h 101 W/m 7,5 km/h (2 Bft)
07.06.2010 08:00 16,4 C 93 % 1011,9 hPa 0,0 l/m SW 0,00 h 138 W/m 9,1 km/h (2 Bft)
07.06.2010 09:00 17,6 C 87 % 1012,1 hPa 0,0 l/m W-SW 0,17 h 309 W/m 12,8 km/h (3 Bft)
07.06.2010 10:00 18,5 C 81 % 1012,0 hPa 0,0 l/m SW 0,25 h 387 W/m 13,0 km/h (3 Bft)
07.06.2010 11:00 19,5 C 80 % 1011,7 hPa 0,0 l/m S-SW 0,42 h 607 W/m 15,7 km/h (3 Bft)
07.06.2010 12:00 20,2 C 76 % 1011,3 hPa 0,0 l/m S-SW 0,25 h 547 W/m 19,2 km/h (3 Bft)
07.06.2010 13:00 21,5 C 68 % 1010,9 hPa 0,0 l/m SW 0,50 h 654 W/m 20,2 km/h (4 Bft)
07.06.2010 14:00 22,0 C 64 % 1010,5 hPa 0,0 l/m SW 0,67 h 823 W/m 18,5 km/h (3 Bft)
07.06.2010 15:00 21,8 C 62 % 1010,1 hPa 0,0 l/m NW 0,42 h 513 W/m 14,1 km/h (3 Bft)
07.06.2010 16:00 21,8 C 59 % 1009,6 hPa 0,0 l/m W-NW 0,42 h 437 W/m 10,9 km/h (2 Bft)
07.06.2010 17:00 21,9 C 59 % 1009,4 hPa 0,0 l/m W-NW 0,42 h 360 W/m 10,7 km/h (2 Bft)
07.06.2010 18:00 22,0 C 58 % 1009,1 hPa 0,0 l/m W 0,75 h 308 W/m 9,0 km/h (2 Bft)
07.06.2010 19:00 21,3 C 62 % 1009,0 hPa 0,0 l/m W-SW 0,00 h 105 W/m 8,2 km/h (2 Bft)
07.06.2010 20:00 20,0 C 69 % 1009,0 hPa 0,0 l/m W-SW 0,00 h 33 W/m 4,4 km/h (1 Bft)
07.06.2010 21:00 19,0 C 73 % 1009,2 hPa 0,0 l/m W-SW 0,08 h 7 W/m 3,2 km/h (1 Bft)
07.06.2010 22:00 17,9 C 79 % 1009,5 hPa 0,0 l/m N 0,00 h 0 W/m 0,5 km/h (0 Bft)
07.06.2010 23:00 16,6 C 86 % 1009,5 hPa 0,0 l/m N 0,00 h 0 W/m 0,3 km/h (0 Bft)
08.06.2010 00:00 15,1 C 90 % 1009,2 hPa 0,0 l/m N 0,00 h 0 W/m 1,3 km/h (1 Bft)
08.06.2010 01:00 14,3 C 92 % 1008,7 hPa 0,0 l/m N 0,00 h 0 W/m 0,3 km/h (0 Bft)
08.06.2010 02:00 13,9 C 93 % 1008,3 hPa 0,0 l/m N 0,00 h 0 W/m 0,0 km/h (0 Bft)
08.06.2010 03:00 13,0 C 94 % 1008,0 hPa 0,0 l/m N 0,00 h 0 W/m 0,3 km/h (0 Bft)
08.06.2010 04:00 12,3 C 96 % 1007,9 hPa 0,0 l/m N 0,00 h 0 W/m 0,0 km/h (0 Bft)
08.06.2010 05:00 11,9 C 96 % 1007,9 hPa 0,0 l/m N 0,08 h 16 W/m 0,0 km/h (0 Bft)
08.06.2010 06:00 12,6 C 97 % 1008,0 hPa 0,0 l/m N 0,58 h 105 W/m 0,0 km/h (0 Bft)
08.06.2010 07:00 15,2 C 90 % 1007,9 hPa 0,0 l/m N 0,92 h 244 W/m 0,0 km/h (0 Bft)
08.06.2010 08:00 17,3 C 82 % 1007,9 hPa 0,0 l/m N 0,92 h 375 W/m 0,0 km/h (0 Bft)
08.06.2010 09:00 19,4 C 76 % 1007,7 hPa 0,0 l/m N 1,00 h 556 W/m 2,7 km/h (1 Bft)
08.06.2010 10:00 21,3 C 72 % 1007,4 hPa 0,0 l/m S-SW 1,00 h 708 W/m 6,7 km/h (2 Bft)
08.06.2010 11:00 22,9 C 67 % 1006,9 hPa 0,0 l/m S 1,00 h 793 W/m 9,5 km/h (2 Bft)
08.06.2010 12:00 24,2 C 59 % 1006,6 hPa 0,0 l/m S-SW 1,00 h 851 W/m 13,8 km/h (3 Bft)
08.06.2010 13:00 24,7 C 57 % 1006,2 hPa 0,0 l/m W-SW 1,00 h 865 W/m 10,1 km/h (2 Bft)
08.06.2010 14:00 25,6 C 48 % 1005,7 hPa 0,0 l/m W-SW 1,00 h 863 W/m 14,2 km/h (3 Bft)
08.06.2010 15:00 26,1 C 46 % 1005,2 hPa 0,0 l/m W 1,00 h 753 W/m 11,9 km/h (2 Bft)
08.06.2010 16:00 25,9 C 45 % 1004,8 hPa 0,0 l/m W-NW 0,83 h 495 W/m 9,9 km/h (2 Bft)
08.06.2010 17:00 24,6 C 51 % 1004,7 hPa 0,0 l/m W-NW 0,25 h 290 W/m 10,2 km/h (2 Bft)
08.06.2010 18:00 23,6 C 56 % 1004,5 hPa 0,0 l/m N-NO 0,17 h 185 W/m 11,9 km/h (2 Bft)
08.06.2010 19:00 22,0 C 64 % 1004,9 hPa 0,0 l/m N 0,08 h 105 W/m 8,2 km/h (2 Bft)
08.06.2010 20:00 20,8 C 70 % 1005,6 hPa 0,0 l/m N 0,00 h 25 W/m 0,3 km/h (0 Bft)
08.06.2010 21:00 19,6 C 77 % 1006,1 hPa 0,0 l/m N 0,00 h 0 W/m 0,4 km/h (0 Bft)
08.06.2010 22:00 18,9 C 82 % 1006,5 hPa 0,0 l/m O 0,00 h 0 W/m 2,0 km/h (1 Bft)
08.06.2010 23:00 17,8 C 86 % 1006,1 hPa 0,0 l/m N-NW 0,00 h 0 W/m 4,9 km/h (1 Bft)
09.06.2010 00:00 16,5 C 90 % 1005,9 hPa 0,0 l/m N-NW 0,00 h 0 W/m 2,9 km/h (1 Bft)
09.06.2010 01:00 15,5 C 93 % 1005,8 hPa 0,0 l/m N-NW 0,00 h 0 W/m 2,1 km/h (1 Bft)
09.06.2010 02:00 15,1 C 93 % 1005,6 hPa 0,0 l/m N-NW 0,00 h 0 W/m 3,5 km/h (1 Bft)
09.06.2010 03:00 15,1 C 92 % 1005,3 hPa 0,0 l/m N 0,00 h 0 W/m 2,7 km/h (1 Bft)
09.06.2010 04:00 14,7 C 92 % 1005,1 hPa 0,0 l/m N-NW 0,00 h 0 W/m 4,4 km/h (1 Bft)
09.06.2010 05:00 14,5 C 92 % 1005,0 hPa 0,0 l/m N-NW 0,08 h 13 W/m 5,3 km/h (1 Bft)
09.06.2010 06:00 14,3 C 93 % 1005,1 hPa 0,0 l/m N 0,00 h 42 W/m 5,5 km/h (1 Bft)
09.06.2010 07:00 15,6 C 91 % 1005,4 hPa 0,0 l/m N-NO 0,50 h 214 W/m 6,6 km/h (2 Bft)
09.06.2010 08:00 17,3 C 86 % 1005,2 hPa 0,0 l/m O-NO 0,58 h 269 W/m 8,2 km/h (2 Bft)
09.06.2010 09:00 18,3 C 84 % 1005,1 hPa 0,0 l/m O 0,17 h 258 W/m 7,2 km/h (2 Bft)
09.06.2010 10:00 20,4 C 78 % 1004,7 hPa 0,0 l/m O-NO 0,92 h 645 W/m 10,1 km/h (2 Bft)
09.06.2010 11:00 23,2 C 67 % 1004,4 hPa 0,0 l/m O-NO 1,00 h 820 W/m 11,6 km/h (2 Bft)
09.06.2010 12:00 25,3 C 61 % 1004,0 hPa 0,0 l/m O-NO 1,00 h 876 W/m 11,8 km/h (2 Bft)
09.06.2010 13:00 26,9 C 55 % 1003,5 hPa 0,0 l/m O 0,92 h 846 W/m 12,2 km/h (2 Bft)
09.06.2010 14:00 28,4 C 44 % 1002,9 hPa 0,0 l/m SO 0,92 h 757 W/m 15,7 km/h (3 Bft)
09.06.2010 15:00 28,6 C 35 % 1002,5 hPa 0,0 l/m S-SW 0,58 h 598 W/m 18,1 km/h (3 Bft)
09.06.2010 16:00 28,8 C 35 % 1002,1 hPa 0,0 l/m SW 0,83 h 588 W/m 18,9 km/h (3 Bft)
09.06.2010 17:00 27,4 C 40 % 1001,9 hPa 0,0 l/m SW 0,75 h 427 W/m 14,1 km/h (3 Bft)
09.06.2010 18:00 26,8 C 37 % 1001,6 hPa 0,0 l/m SW 0,92 h 305 W/m 24,4 km/h (4 Bft)
09.06.2010 19:00 25,4 C 38 % 1001,8 hPa 0,0 l/m SW 0,33 h 110 W/m 27,2 km/h (4 Bft)
09.06.2010 20:00 23,2 C 42 % 1001,9 hPa 0,0 l/m S-SW 0,00 h 27 W/m 15,3 km/h (3 Bft)
09.06.2010 21:00 21,9 C 45 % 1002,0 hPa 0,0 l/m SW 0,00 h 5 W/m 12,9 km/h (3 Bft)
09.06.2010 22:00 22,1 C 42 % 1002,3 hPa 0,0 l/m SW 0,00 h 0 W/m 17,0 km/h (3 Bft)
09.06.2010 23:00 21,9 C 44 % 1002,6 hPa 0,0 l/m SW 0,00 h 0 W/m 13,6 km/h (3 Bft)
10.06.2010 00:00 21,4 C 46 % 1003,0 hPa 0,0 l/m SW 0,00 h 0 W/m 7,5 km/h (2 Bft)
10.06.2010 01:00 21,2 C 48 % 1003,0 hPa 0,0 l/m W-SW 0,00 h 0 W/m 9,1 km/h (2 Bft)
10.06.2010 02:00 22,0 C 45 % 1002,8 hPa 0,0 l/m SW 0,00 h 0 W/m 13,4 km/h (3 Bft)
10.06.2010 03:00 19,7 C 58 % 1002,8 hPa 0,0 l/m N-NW 0,00 h 0 W/m 4,3 km/h (1 Bft)
10.06.2010 04:00 18,0 C 68 % 1002,9 hPa 0,0 l/m O-NO 0,00 h 0 W/m 4,7 km/h (1 Bft)
10.06.2010 05:00 17,3 C 75 % 1002,9 hPa 0,0 l/m NO 0,00 h 9 W/m 3,7 km/h (1 Bft)
10.06.2010 06:00 17,1 C 78 % 1003,1 hPa 0,0 l/m N-NO 0,00 h 37 W/m 4,1 km/h (1 Bft)
10.06.2010 07:00 17,9 C 77 % 1003,1 hPa 0,0 l/m N-NO 0,17 h 142 W/m 4,1 km/h (1 Bft)
10.06.2010 08:00 19,5 C 72 % 1003,1 hPa 0,0 l/m NO 0,17 h 210 W/m 5,9 km/h (2 Bft)
10.06.2010 09:00 21,2 C 67 % 1003,1 hPa 0,0 l/m O-NO 0,75 h 422 W/m 7,6 km/h (2 Bft)
10.06.2010 10:00 23,1 C 62 % 1003,0 hPa 0,0 l/m O-SO 0,92 h 608 W/m 8,0 km/h (2 Bft)
10.06.2010 11:00 26,4 C 48 % 1003,2 hPa 0,0 l/m W-SW 1,00 h 811 W/m 17,8 km/h (3 Bft)
10.06.2010 12:00 27,1 C 41 % 1003,1 hPa 0,0 l/m SW 0,92 h 669 W/m 31,5 km/h (5 Bft)
10.06.2010 13:00 27,2 C 42 % 1002,8 hPa 0,0 l/m S-SW 0,75 h 619 W/m 25,1 km/h (4 Bft)
10.06.2010 14:00 27,3 C 43 % 1002,8 hPa 0,0 l/m SW 0,92 h 549 W/m 26,2 km/h (4 Bft)
10.06.2010 15:00 28,3 C 41 % 1002,7 hPa 0,0 l/m SW 1,00 h 792 W/m 23,7 km/h (4 Bft)
10.06.2010 16:00 28,9 C 37 % 1002,6 hPa 0,0 l/m S-SW 1,00 h 679 W/m 30,7 km/h (5 Bft)
10.06.2010 17:00 29,4 C 38 % 1002,2 hPa 0,0 l/m S-SW 1,00 h 542 W/m 14,9 km/h (3 Bft)
10.06.2010 18:00 28,7 C 43 % 1001,7 hPa 0,0 l/m SW 1,00 h 333 W/m 8,9 km/h (2 Bft)
10.06.2010 19:00 27,4 C 45 % 1001,8 hPa 0,0 l/m SW 0,17 h 81 W/m 11,3 km/h (2 Bft)
10.06.2010 20:00 25,1 C 50 % 1001,9 hPa 0,0 l/m SW 0,00 h 30 W/m 13,1 km/h (3 Bft)
10.06.2010 21:00 23,4 C 48 % 1002,0 hPa 0,0 l/m S-SW 0,00 h 5 W/m 14,0 km/h (3 Bft)
10.06.2010 22:00 23,4 C 44 % 1002,7 hPa 0,0 l/m S-SW 0,00 h 0 W/m 22,0 km/h (4 Bft)
10.06.2010 23:00 22,3 C 47 % 1002,6 hPa 0,0 l/m SW 0,00 h 0 W/m 14,9 km/h (3 Bft)
11.06.2010 00:00 21,5 C 50 % 1002,3 hPa 0,0 l/m SW 0,00 h 0 W/m 14,4 km/h (3 Bft)
11.06.2010 01:00 21,5 C 49 % 1002,8 hPa 0,0 l/m S-SW 0,00 h 0 W/m 9,9 km/h (2 Bft)
11.06.2010 02:00 21,0 C 52 % 1003,8 hPa 0,0 l/m W-NW 0,00 h 0 W/m 13,8 km/h (3 Bft)
11.06.2010 03:00 18,4 C 72 % 1004,1 hPa 0,0 l/m N 0,00 h 0 W/m 5,8 km/h (1 Bft)
11.06.2010 04:00 16,7 C 81 % 1004,2 hPa 0,0 l/m N 0,00 h 0 W/m 4,7 km/h (1 Bft)
11.06.2010 05:00 15,8 C 84 % 1004,6 hPa 0,0 l/m N-NO 0,00 h 14 W/m 4,5 km/h (1 Bft)
11.06.2010 06:00 16,1 C 82 % 1005,5 hPa 0,0 l/m O 0,42 h 86 W/m 7,4 km/h (2 Bft)
11.06.2010 07:00 18,1 C 74 % 1006,4 hPa 0,0 l/m NO 0,75 h 218 W/m 7,0 km/h (2 Bft)
11.06.2010 08:00 19,4 C 69 % 1006,7 hPa 0,0 l/m O 0,75 h 426 W/m 8,2 km/h (2 Bft)
11.06.2010 09:00 21,0 C 66 % 1007,3 hPa 0,0 l/m N-NO 0,92 h 541 W/m 10,7 km/h (2 Bft)
11.06.2010 10:00 22,0 C 64 % 1007,4 hPa 0,0 l/m N-NO 1,00 h 739 W/m 11,2 km/h (2 Bft)
11.06.2010 11:00 22,8 C 62 % 1007,6 hPa 0,0 l/m NO 0,83 h 772 W/m 11,7 km/h (2 Bft)
11.06.2010 12:00 23,5 C 59 % 1007,4 hPa 0,0 l/m O-NO 0,67 h 731 W/m 12,0 km/h (2 Bft)
11.06.2010 13:00 24,3 C 57 % 1006,9 hPa 0,0 l/m NO 0,83 h 849 W/m 13,3 km/h (3 Bft)
11.06.2010 14:00 25,0 C 55 % 1006,7 hPa 0,0 l/m N 0,83 h 795 W/m 14,5 km/h (3 Bft)
11.06.2010 15:00 25,4 C 55 % 1006,6 hPa 0,0 l/m NO 0,67 h 711 W/m 14,5 km/h (3 Bft)
11.06.2010 16:00 25,5 C 55 % 1006,5 hPa 0,0 l/m N 0,92 h 650 W/m 13,0 km/h (3 Bft)
11.06.2010 17:00 25,8 C 54 % 1006,5 hPa 0,0 l/m NO 1,00 h 531 W/m 11,4 km/h (2 Bft)
11.06.2010 18:00 25,7 C 53 % 1006,2 hPa 0,0 l/m NO 1,00 h 350 W/m 10,8 km/h (2 Bft)
11.06.2010 19:00 24,9 C 54 % 1006,4 hPa 0,0 l/m N-NO 0,17 h 91 W/m 7,2 km/h (2 Bft)
11.06.2010 20:00 24,0 C 60 % 1006,5 hPa 0,0 l/m NO 0,00 h 30 W/m 6,0 km/h (2 Bft)
11.06.2010 21:00 21,7 C 69 % 1006,5 hPa 0,0 l/m NO 0,00 h 7 W/m 4,3 km/h (1 Bft)
11.06.2010 22:00 19,9 C 77 % 1006,9 hPa 0,0 l/m N 0,00 h 0 W/m 1,5 km/h (1 Bft)
11.06.2010 23:00 19,4 C 78 % 1007,1 hPa 0,0 l/m N 0,00 h 0 W/m 5,3 km/h (1 Bft)
12.06.2010 00:00 19,2 C 78 % 1006,9 hPa 0,0 l/m N 0,00 h 0 W/m 7,2 km/h (2 Bft)
12.06.2010 01:00 19,1 C 78 % 1007,1 hPa 0,0 l/m N 0,00 h 0 W/m 6,3 km/h (2 Bft)
12.06.2010 02:00 18,5 C 79 % 1007,1 hPa 0,0 l/m N 0,00 h 0 W/m 5,7 km/h (1 Bft)
12.06.2010 03:00 17,7 C 82 % 1006,4 hPa 0,0 l/m N 0,00 h 0 W/m 3,3 km/h (1 Bft)
12.06.2010 04:00 17,1 C 84 % 1006,3 hPa 0,0 l/m N-NW 0,00 h 0 W/m 7,4 km/h (2 Bft)
12.06.2010 05:00 16,6 C 86 % 1006,8 hPa 0,0 l/m N-NW 0,00 h 11 W/m 8,7 km/h (2 Bft)
12.06.2010 06:00 17,0 C 84 % 1007,2 hPa 0,0 l/m N 0,08 h 50 W/m 8,2 km/h (2 Bft)
12.06.2010 07:00 17,8 C 76 % 1007,8 hPa 0,0 l/m N-NO 0,00 h 61 W/m 8,3 km/h (2 Bft)
12.06.2010 08:00 17,8 C 76 % 1008,2 hPa 0,0 l/m W 0,00 h 117 W/m 3,1 km/h (1 Bft)
12.06.2010 09:00 18,1 C 73 % 1008,6 hPa 0,0 l/m NW 0,00 h 148 W/m 4,8 km/h (1 Bft)
12.06.2010 10:00 17,4 C 82 % 1008,7 hPa 0,2 l/m NW 0,00 h 127 W/m 5,7 km/h (1 Bft)
12.06.2010 11:00 17,5 C 84 % 1009,2 hPa 0,0 l/m NW 0,00 h 169 W/m 5,1 km/h (1 Bft)
12.06.2010 12:00 18,0 C 82 % 1009,4 hPa 0,0 l/m SW 0,00 h 166 W/m 7,2 km/h (2 Bft)
12.06.2010 13:00 18,5 C 81 % 1009,4 hPa 0,0 l/m NW 0,17 h 374 W/m 5,9 km/h (2 Bft)
12.06.2010 14:00 19,4 C 81 % 1009,2 hPa 0,0 l/m SW 0,08 h 394 W/m 16,5 km/h (3 Bft)
12.06.2010 15:00 20,1 C 79 % 1008,9 hPa 0,0 l/m S-SW 0,58 h 649 W/m 18,4 km/h (3 Bft)
12.06.2010 16:00 21,8 C 70 % 1008,8 hPa 0,0 l/m SW 1,00 h 690 W/m 19,0 km/h (3 Bft)
12.06.2010 17:00 22,2 C 62 % 1008,8 hPa 0,0 l/m W-SW 1,00 h 504 W/m 16,5 km/h (3 Bft)
12.06.2010 18:00 21,7 C 64 % 1008,9 hPa 0,0 l/m W-SW 0,92 h 309 W/m 16,8 km/h (3 Bft)
12.06.2010 19:00 20,3 C 64 % 1009,3 hPa 0,0 l/m W-SW 0,00 h 95 W/m 12,0 km/h (2 Bft)
12.06.2010 20:00 19,1 C 69 % 1010,0 hPa 0,2 l/m W-SW 0,00 h 33 W/m 10,3 km/h (2 Bft)
12.06.2010 21:00 18,8 C 71 % 1010,3 hPa 0,0 l/m W 0,00 h 7 W/m 5,3 km/h (1 Bft)
12.06.2010 22:00 18,2 C 75 % 1010,8 hPa 0,0 l/m SO 0,00 h 0 W/m 4,5 km/h (1 Bft)
12.06.2010 23:00 17,7 C 78 % 1010,8 hPa 0,0 l/m N 0,00 h 0 W/m 0,9 km/h (0 Bft)
13.06.2010 00:00 17,2 C 81 % 1011,1 hPa 0,0 l/m N 0,00 h 0 W/m 1,1 km/h (0 Bft)
13.06.2010 01:00 16,5 C 85 % 1011,3 hPa 0,0 l/m N 0,00 h 0 W/m 0,7 km/h (0 Bft)
13.06.2010 02:00 16,4 C 86 % 1011,0 hPa 0,0 l/m N-NO 0,00 h 0 W/m 1,3 km/h (1 Bft)
13.06.2010 03:00 16,3 C 87 % 1011,0 hPa 0,0 l/m N 0,00 h 0 W/m 1,1 km/h (0 Bft)
13.06.2010 04:00 16,1 C 88 % 1010,7 hPa 0,0 l/m N 0,00 h 0 W/m 2,4 km/h (1 Bft)
13.06.2010 05:00 16,1 C 86 % 1011,0 hPa 0,0 l/m N-NO 0,00 h 5 W/m 4,5 km/h (1 Bft)
13.06.2010 06:00 16,1 C 87 % 1011,2 hPa 0,0 l/m N-NO 0,00 h 14 W/m 7,2 km/h (2 Bft)
13.06.2010 07:00 15,8 C 90 % 1011,3 hPa 0,4 l/m N-NO 0,00 h 54 W/m 10,5 km/h (2 Bft)
13.06.2010 08:00 15,4 C 92 % 1011,5 hPa 0,0 l/m NO 0,00 h 79 W/m 9,7 km/h (2 Bft)
13.06.2010 09:00 15,2 C 91 % 1011,8 hPa 0,0 l/m NO 0,00 h 91 W/m 10,5 km/h (2 Bft)
13.06.2010 10:00 15,2 C 89 % 1011,7 hPa 0,0 l/m O-NO 0,00 h 124 W/m 12,0 km/h (2 Bft)
13.06.2010 11:00 15,3 C 87 % 1011,6 hPa 0,0 l/m NO 0,00 h 156 W/m 13,2 km/h (3 Bft)
13.06.2010 12:00 15,0 C 87 % 1011,7 hPa 0,2 l/m NO 0,00 h 176 W/m 13,0 km/h (3 Bft)
13.06.2010 13:00 15,0 C 85 % 1011,5 hPa 0,0 l/m N-NO 0,00 h 154 W/m 14,1 km/h (3 Bft)
13.06.2010 14:00 14,6 C 88 % 1011,3 hPa 0,0 l/m O-NO 0,00 h 182 W/m 15,0 km/h (3 Bft)
13.06.2010 15:00 15,6 C 84 % 1011,0 hPa 0,0 l/m O-NO 0,00 h 277 W/m 13,7 km/h (3 Bft)
13.06.2010 16:00 15,3 C 87 % 1010,9 hPa 0,4 l/m NO 0,00 h 172 W/m 12,4 km/h (3 Bft)
13.06.2010 17:00 15,0 C 89 % 1010,5 hPa 0,2 l/m O-NO 0,08 h 162 W/m 13,2 km/h (3 Bft)
13.06.2010 18:00 14,7 C 90 % 1010,2 hPa 0,0 l/m O-NO 0,00 h 78 W/m 8,2 km/h (2 Bft)
13.06.2010 19:00 14,4 C 92 % 1010,3 hPa 1,8 l/m O-SO 0,00 h 24 W/m 5,3 km/h (1 Bft)
13.06.2010 20:00 13,9 C 94 % 1010,3 hPa 1,0 l/m O-SO 0,00 h 13 W/m 3,5 km/h (1 Bft)
13.06.2010 21:00 13,6 C 96 % 1010,1 hPa 0,0 l/m O-NO 0,00 h 6 W/m 2,5 km/h (1 Bft)
13.06.2010 22:00 13,4 C 97 % 1010,6 hPa 0,0 l/m NO 0,00 h 0 W/m 0,7 km/h (0 Bft)
13.06.2010 23:00 13,4 C 97 % 1010,6 hPa 0,2 l/m N 0,00 h 0 W/m 1,5 km/h (1 Bft)
Min-Datum _ 08.06.10 09.06.10 09.06.10 - - - - 07.06.10
_ Min-Zeit 05:30 15:00 18:40 - - - - 21:20
Minimum _ 11,8 C 30 % 1001,5 hPa - - - - 0,0 km/h (0 Bft)
Max-Datum _ 09.06.10 08.06.10 07.06.10 13.06.10 - 07.06.10 07.06.10 10.06.10
_ Max-Zeit 15:15 05:55 00:05 19:40 - 09:05 13:50 12:20
Maximum _ 29,8 C 97 % 1012,5 hPa 1,8 l/m - 0,08 h 1176 W/m 40,2 km/h
SW (6 Bft)
Durchschnitt _ 19,7 C 72 % 1007,1 hPa #4,8 l/m SW #49:05 h 332 W/m 9,4 km/h (2 Bft)